Juneau, AK

3:16 AM AKDT on September 23, 2014 (GMT -0800)
Juneau International | Change Station
CLOSE
Current Station
Airport
Location: Juneau,
Elevation: 23 ft
Nearby Weather Stations

Elev 23 ft 58.35 °N, 134.58 °W | Updated 23 minutes ago

Overcast
Overcast
48 °F
Feels Like 48 °F
N
8
Wind Variable Wind from ESE

Today
High -- | Low -- °F
--% Chance of Precip.
Yesterday
High -- | Low -- °F
Precip. -- in
6:45 AM 6:54 PM
Waning Crescent, 1% visible
Pressure 29.91 in
Visibility 10.0 miles
Clouds Few 800 ft
Mostly Cloudy 3900 ft
Overcast 5000 ft
Dew Point 47 °F
Humidity 96%
Rainfall 0.00 in
Snow Depth 0 in , 2 in , 4 in
UV 0 out of 12
Pollen Not available.
Air Quality Not available.
Flu Activity Not available.
METAR PAJN 231053Z 12007KT 10SM FEW008 BKN039 OVC050 09/08 A2991 RMK AO2 RAE21 SLP127 P0000 T00890083

More Conditions Fewer Conditions

Pressure 29.91 in
Visibility 10.0 miles
Clouds Few 800 ft
Mostly Cloudy 3900 ft
Overcast 5000 ft
Dew Point 47 °F
Humidity 96%
Rainfall 0.00 in
Snow Depth 0 in , 2 in , 4 in
UV 0 out of 12
Pollen Not available.
Air Quality Not available.
Flu Activity Not available.
METAR PAJN 231053Z 12007KT 10SM FEW008 BKN039 OVC050 09/08 A2991 RMK AO2 RAE21 SLP127 P0000 T00890083

More Conditions Fewer Conditions

10-Day Weather Forecast

Almanac

Astronomy

Sep. 23, 2014 Rise Set
Actual Time 6:45 AM AKDT 6:54 PM AKDT
Civil Twilight 6:05 AM AKDT 7:33 PM AKDT
Nautical Twilight 5:18 AM AKDT 8:20 PM AKDT
Astronomical Twilight 4:27 AM AKDT 9:11 PM AKDT
Moon 6:16 AM AKDT 6:31 PM AKDT
Length of Visible Light 13h 27m
Length of Day
12h 08m
Tomorrow will be 5m 3s shorter.
Waning Crescent, 1% of the Moon is Illuminated
Today
Waning Crescent
Sep 24
New
Oct 1
First Quarter
Oct 8
Full
Oct 15
Last Quarter

Today's Extremes

State Highs State Lows

Community

WunderPhotos

Upload Photos

1,755,645 photos uploaded!

Nearby

Snow Depth

Station Depth Elevation
Summit Creek 0 in 1400 ft
Susitna Valley High 2 in 375 ft
Imnaviat Creek 4 in 3050 ft
Upper Chena 1 in 2850 ft
Grandview 2 in 1100 ft

Earthquake Activity

City Distance Mag. Time & Date
No recent earthquake activity has been reported nearby.
Minimum magnitude displayed is 2.5.

Coastal Water Temperatures

Place Temperature
No Stations Reporting

Nearby Weather Stations